Billings, MT (59101)

2:44 PM MST on February 14, 2016 (GMT -0700)
Jupiter Sulphur | | Change Station
CLOSE
Current Station
Personal Weather Station
Location: Billings, MT
Elevation: 3114 ft
Nearby Weather Stations
Active Advisory: High Wind Watch Active Notice: Record Report, Local Storm Report

Elev 3114 ft 45.78 °N, 108.49 °W | Updated 10 minutes ago

Partly Cloudy
Partly Cloudy
55.1 °F
Feels Like 55.1 °F
N
14.0
Wind Variable Wind from NNW
Gusts 30.0 mph

Today
High -- | Low -- °F
--% Chance of Precip.
Yesterday
High -- | Low -- °F
Precip. -- in
Pressure 29.84 in
Visibility 10.0 miles
Clouds Few 7500 ft
Scattered Clouds 10000 ft
Dew Point 25 °F
Humidity 31%
Rainfall 0.02 in
Snow Depth Not available.
7:18 AM 5:38 PM
Waxing Crescent, 45% visible
METAR KBIL 142053Z 33024G38KT 10SM FEW075 SCT100 11/M07 A2982 RMK AO2 PK WND 32043/2043 SLP103 VIRGA SHRA DSNT NE-S T01111072 51000 $
Pressure 29.84 in
Visibility 10.0 miles
Clouds Few 7500 ft
Scattered Clouds 10000 ft
Dew Point 25 °F
Humidity 31%
Rainfall 0.02 in
Snow Depth Not available.
7:18 AM 5:38 PM
Waxing Crescent, 45% visible
METAR KBIL 142053Z 33024G38KT 10SM FEW075 SCT100 11/M07 A2982 RMK AO2 PK WND 32043/2043 SLP103 VIRGA SHRA DSNT NE-S T01111072 51000 $

10-Day Weather Forecast

Almanac

Astronomy

Feb. 14, 2016 Rise Set
Actual Time
Civil Twilight
Nautical Twilight
Astronomical Twilight
Moon
Length of Visible Light
Length of Day
Tomorrow will be .
, % of the Moon is Illuminated

Today's Extremes

State Highs State Lows

Community

WunderPhotos

Upload Photos

1,892,890 photos uploaded!

WunderBlog® & News

Nearby

Air Quality

  Air Quality AQ Index Pollutant
Not available.

Snow Depth

Station Depth Elevation

Earthquake Activity

City Distance Mag. Time & Date
Minimum magnitude displayed is 2.5.

Coastal Water Temperatures

Place Temperature

Stations

Nearby Weather Stations

Station Location Temp. Windchill Dew Point Humidity Wind Precip. Elev Updated Type
                   

Watches & Warnings

High Wind Watch
Issued: 2:42 PM MST Feb. 14, 2016 – National Weather Service

... High wind watch in effect from late tonight through Monday
evening...

The National Weather Service in Billings has issued a high wind
watch... which is in effect from late tonight through Monday
evening.

* Timing... west to northwest winds are expected to become very
strong on Monday. Winds will begin to decrease Monday evening.

* Impacts... travel and outdoor activities will be impacted by
strong winds. Those driving high profile vehicles should be
alert for dangerous cross winds.

* Winds... gusts of 50 to 60 mph are possible.

Precautionary/preparedness actions...

Winds of these magnitudes can cause property damage without extra
precautions. Motorists in high profile vehicles should use
caution until the winds subside.



Http://weather.Gov/Billings